createdAt,value
2019-05-20T00:01:01.895Z,94164.9
2019-05-20T00:02:04.318Z,94163.6
2019-05-20T00:03:06.210Z,94166.1
2019-05-20T00:04:08.106Z,94164.6
2019-05-20T00:05:10.262Z,94164.4
2019-05-20T00:06:12.881Z,94164.7
2019-05-20T00:07:14.835Z,94166.9
2019-05-20T00:08:16.973Z,94163.3
2019-05-20T00:09:19.406Z,94164.2
2019-05-20T00:10:21.838Z,94160.9
2019-05-20T00:11:24.262Z,94161.2
2019-05-20T00:12:26.702Z,94155.2
2019-05-20T00:13:28.872Z,94156.1
2019-05-20T00:14:30.742Z,94154.9
2019-05-20T00:15:33.158Z,94153.5
2019-05-20T00:16:35.583Z,94156.4
2019-05-20T00:17:38.012Z,94152.5
2019-05-20T00:18:40.226Z,94155.2
2019-05-20T00:19:42.419Z,94156.4
2019-05-20T00:20:44.875Z,94153.7
2019-05-20T00:21:47.300Z,94152.7
2019-05-20T00:22:49.784Z,94156.1
2019-05-20T00:23:52.164Z,94154.8
2019-05-20T00:24:54.359Z,94159.1
2019-05-20T00:25:56.831Z,94155.9
2019-05-20T00:26:58.992Z,94157.6
2019-05-20T00:28:01.189Z,94152.4
2019-05-20T00:29:03.353Z,94152.6
2019-05-20T00:30:05.794Z,94155.7
2019-05-20T00:31:08.238Z,94151.9
2019-05-20T00:32:10.664Z,94156.6
2019-05-20T00:33:12.838Z,94151.8
2019-05-20T00:34:14.994Z,94151.2
2019-05-20T00:35:17.444Z,94148.5
2019-05-20T00:36:19.950Z,94145.4
2019-05-20T00:37:22.382Z,94143.6
2019-05-20T00:38:24.801Z,94139.3
2019-05-20T00:39:27.216Z,94135.6
2019-05-20T00:40:29.643Z,94134.1
2019-05-20T00:41:32.059Z,94128.2
2019-05-20T00:42:34.541Z,94132.9
2019-05-20T00:43:36.696Z,94129.3
2019-05-20T00:44:38.848Z,94123.9
2019-05-20T00:45:41.012Z,94121.6
2019-05-20T00:46:43.447Z,94122.5
2019-05-20T00:47:45.872Z,94123.8
2019-05-20T00:48:48.309Z,94123.3
2019-05-20T00:49:50.449Z,94125.8
2019-05-20T00:50:52.596Z,94122.8
2019-05-20T00:51:55.034Z,94125.7
2019-05-20T00:52:57.474Z,94120
2019-05-20T00:53:59.905Z,94120.6
2019-05-20T00:55:02.057Z,94121.3
2019-05-20T00:56:04.212Z,94122.2
2019-05-20T00:57:06.656Z,94119.8
2019-05-20T00:58:08.815Z,94118.1
2019-05-20T00:59:10.996Z,94120.1
2019-05-20T01:00:13.162Z,94115
2019-05-20T01:01:15.588Z,94119
2019-05-20T01:02:18.031Z,94110.7
2019-05-20T01:03:20.460Z,94108.4
2019-05-20T01:04:22.934Z,94111.5
2019-05-20T01:05:25.386Z,94114.6
2019-05-20T01:06:27.254Z,94112.3
2019-05-20T01:07:29.680Z,94112.3
2019-05-20T01:08:31.840Z,94115.3
2019-05-20T01:09:34.273Z,94119.7
2019-05-20T01:10:36.434Z,94113.8
2019-05-20T01:11:38.307Z,94116.7
2019-05-20T01:12:40.724Z,94113
2019-05-20T01:13:42.847Z,94111.5
2019-05-20T01:14:45.006Z,94110.8
2019-05-20T01:15:47.440Z,94114.3
2019-05-20T01:16:49.878Z,94109.4
2019-05-20T01:17:52.314Z,94111.7
2019-05-20T01:18:54.739Z,94108.4
2019-05-20T01:19:56.889Z,94107.8
2019-05-20T01:20:59.075Z,94107.2
2019-05-20T01:22:01.504Z,94108.9
2019-05-20T01:23:03.933Z,94109.2
2019-05-20T01:24:06.085Z,94103.5
2019-05-20T01:25:08.524Z,94099.4
2019-05-20T01:26:10.959Z,94100
2019-05-20T01:27:13.382Z,94094.5
2019-05-20T01:28:15.808Z,94095.3
2019-05-20T01:29:18.234Z,94094.5
2019-05-20T01:30:20.678Z,94094.5
2019-05-20T01:31:22.858Z,94096.3
2019-05-20T01:32:25.016Z,94096.2
2019-05-20T01:33:27.177Z,94103.3
2019-05-20T01:34:29.316Z,94099.9
2019-05-20T01:35:31.478Z,94098.8
2019-05-20T01:36:34.007Z,94105.1
2019-05-20T01:37:36.174Z,94104.7
2019-05-20T01:38:38.346Z,94104.5
2019-05-20T01:39:40.769Z,94109
2019-05-20T01:40:43.202Z,94109.6
2019-05-20T01:41:45.372Z,94112
2019-05-20T01:42:47.804Z,94109.7
2019-05-20T01:43:49.955Z,94111.2
2019-05-20T01:44:52.423Z,94104.5
2019-05-20T01:45:54.892Z,94108.2
2019-05-20T01:46:57.061Z,94108.1
2019-05-20T01:47:59.474Z,94110.1
2019-05-20T01:49:01.909Z,94104.9
2019-05-20T01:50:04.333Z,94105.5
2019-05-20T01:51:06.758Z,94103.9
2019-05-20T01:52:08.952Z,94102.2
2019-05-20T01:53:11.092Z,94103.3
2019-05-20T01:54:13.014Z,94101
2019-05-20T01:55:15.448Z,94099.3
2019-05-20T01:56:17.870Z,94100.3
2019-05-20T01:57:19.764Z,94097.3
2019-05-20T01:58:21.918Z,94096.3
2019-05-20T01:59:24.386Z,94098.6
2019-05-20T02:00:26.893Z,94095.8
2019-05-20T02:01:29.493Z,94091
2019-05-20T02:02:31.426Z,94098.1
2019-05-20T02:03:34.134Z,94093.7
2019-05-20T02:04:36.313Z,94100
2019-05-20T02:05:38.804Z,94102.3
2019-05-20T02:06:41.242Z,94100.7
2019-05-20T02:07:43.104Z,94097.8
2019-05-20T02:08:45.267Z,94092.8
2019-05-20T02:09:47.414Z,94097.3
2019-05-20T02:10:49.577Z,94094.6
2019-05-20T02:11:52.006Z,94094.1
2019-05-20T02:12:54.446Z,94093.9
2019-05-20T02:13:56.889Z,94092
2019-05-20T02:14:59.307Z,94088
2019-05-20T02:16:00.908Z,94087.5
2019-05-20T02:17:04.277Z,94084.3
2019-05-20T02:18:06.411Z,94089.9
2019-05-20T02:19:08.560Z,94089.1
2019-05-20T02:20:10.993Z,94091
2019-05-20T02:21:13.417Z,94093.9
2019-05-20T02:22:15.561Z,94085.4
2019-05-20T02:23:18.010Z,94088.8
2019-05-20T02:24:20.452Z,94084.4
2019-05-20T02:25:22.881Z,94084.2
2019-05-20T02:26:25.306Z,94081.9
2019-05-20T02:27:27.765Z,94084.5
2019-05-20T02:28:30.208Z,94086.3
2019-05-20T02:29:32.634Z,94083.4
2019-05-20T02:30:34.783Z,94084.7
2019-05-20T02:31:36.963Z,94080.8
2019-05-20T02:32:39.399Z,94080.9
2019-05-20T02:34:46.547Z,94079.8
2019-05-20T02:35:48.973Z,94077.6
2019-05-20T02:36:51.394Z,94074.7
2019-05-20T02:37:53.830Z,94076.5
2019-05-20T02:38:55.984Z,94078.8
2019-05-20T02:39:58.411Z,94074.8
2019-05-20T02:41:00.840Z,94077.3
2019-05-20T02:42:03.324Z,94074.5
2019-05-20T02:43:05.755Z,94075.8
2019-05-20T02:44:08.193Z,94074.8
2019-05-20T02:45:10.658Z,94072.7
2019-05-20T02:46:13.100Z,94071.2
2019-05-20T02:47:15.550Z,94072.6
2019-05-20T02:48:17.978Z,94071.6
2019-05-20T02:49:20.402Z,94076.9
2019-05-20T02:50:22.847Z,94075
2019-05-20T02:51:25.283Z,94074.4
2019-05-20T02:52:27.718Z,94076.9
2019-05-20T02:53:30.329Z,94075.3
2019-05-20T02:54:32.754Z,94075
2019-05-20T02:55:35.189Z,94075.6
2019-05-20T02:56:37.357Z,94079.9
2019-05-20T02:57:39.796Z,94076
2019-05-20T02:58:41.940Z,94076.5
2019-05-20T02:59:44.088Z,94077.6
2019-05-20T03:00:46.520Z,94073.8
2019-05-20T03:01:48.943Z,94074.4
2019-05-20T03:02:51.364Z,94076.7
2019-05-20T03:04:58.480Z,94074
2019-05-20T03:06:00.629Z,94070
2019-05-20T03:07:03.093Z,94069.7
2019-05-20T03:08:05.548Z,94071.8
2019-05-20T03:10:13.651Z,94074.2
2019-05-20T03:11:16.077Z,94073.6
2019-05-20T03:12:18.224Z,94074.7
2019-05-20T03:13:20.671Z,94074.1
2019-05-20T03:14:23.120Z,94073.8
2019-05-20T03:15:25.546Z,94071.6
2019-05-20T03:16:27.986Z,94071.8
2019-05-20T03:17:30.404Z,94070.9
2019-05-20T03:18:32.837Z,94070.7
2019-05-20T03:19:34.991Z,94068.6
2019-05-20T03:20:36.867Z,94067.5
2019-05-20T03:21:39.281Z,94067.6
2019-05-20T03:22:41.715Z,94066.7
2019-05-20T03:23:44.144Z,94058.2
2019-05-20T03:24:46.574Z,94058.4
2019-05-20T03:25:48.454Z,94055.6
2019-05-20T03:26:51.085Z,94055.2
2019-05-20T03:27:53.511Z,94051.7
2019-05-20T03:29:25.256Z,94046.8
2019-05-20T03:30:27.412Z,94044
2019-05-20T03:31:29.314Z,94044.4
2019-05-20T03:32:32.413Z,94045.7
2019-05-20T03:33:34.851Z,94044.8
2019-05-20T03:35:42.265Z,94040.9
2019-05-20T03:36:44.702Z,94041.4
2019-05-20T03:37:47.141Z,94041.5
2019-05-20T03:38:49.562Z,94036.2
2019-05-20T03:39:51.704Z,94038.1
2019-05-20T03:40:53.594Z,94031.2
2019-05-20T03:41:55.737Z,94033.5
2019-05-20T03:42:58.178Z,94035.3
2019-05-20T03:44:00.606Z,94032.5
2019-05-20T03:45:03.050Z,94030.5
2019-05-20T03:46:05.526Z,94031.6
2019-05-20T03:47:07.939Z,94033.8
2019-05-20T03:48:10.396Z,94034.4
2019-05-20T03:49:12.831Z,94030.7
2019-05-20T03:50:15.246Z,94031.8
2019-05-20T03:51:17.422Z,94031.3
2019-05-20T03:52:19.854Z,94035.1
2019-05-20T03:53:22.275Z,94037
2019-05-20T03:54:24.074Z,94033.3
2019-05-20T03:55:26.244Z,94032.4
2019-05-20T03:56:28.677Z,94035.1
2019-05-20T03:57:31.112Z,94030.6
2019-05-20T03:58:33.547Z,94032.8
2019-05-20T03:59:36.001Z,94037.9
2019-05-20T04:00:38.161Z,94033.8
2019-05-20T04:01:40.593Z,94036.4
2019-05-20T04:02:42.768Z,94033.4
2019-05-20T04:03:45.193Z,94033.8
2019-05-20T04:05:52.326Z,94032.8
2019-05-20T04:06:54.753Z,94029.4
2019-05-20T04:07:57.186Z,94028.6
2019-05-20T04:08:59.605Z,94023.9
2019-05-20T04:10:01.788Z,94017.8
2019-05-20T04:11:04.285Z,94010.7
2019-05-20T04:12:06.894Z,94010.5
2019-05-20T04:13:09.409Z,94014.6
2019-05-20T04:14:11.917Z,94016.7
2019-05-20T04:15:14.440Z,94026
2019-05-20T04:16:16.584Z,94023.5
2019-05-20T04:17:19.017Z,94029
2019-05-20T04:18:21.176Z,94025.4
2019-05-20T04:19:23.602Z,94027.1
2019-05-20T04:20:26.373Z,94026
2019-05-20T04:21:28.545Z,94025.8
2019-05-20T04:22:32.423Z,94026
2019-05-20T04:23:35.594Z,94025.5
2019-05-20T04:24:37.844Z,94024.3
2019-05-20T04:25:40.266Z,94025.5
2019-05-20T04:26:42.683Z,94022.6
2019-05-20T04:27:45.114Z,94022.6
2019-05-20T04:28:47.736Z,94027.7
2019-05-20T04:29:50.934Z,94026.5
2019-05-20T04:30:53.403Z,94025.6
2019-05-20T04:31:55.853Z,94031.6
2019-05-20T04:32:57.993Z,94036.3
2019-05-20T04:34:00.969Z,94041.8
2019-05-20T04:36:08.405Z,94043.8
2019-05-20T04:37:10.734Z,94052.5
2019-05-20T04:38:13.160Z,94058.4
2019-05-20T04:39:15.617Z,94058.3
2019-05-20T04:40:18.076Z,94060.9
2019-05-20T04:41:19.960Z,94066
2019-05-20T04:42:22.387Z,94062.5
2019-05-20T04:43:24.829Z,94061.7
2019-05-20T04:44:27.272Z,94063.4
2019-05-20T04:45:29.902Z,94066.4
2019-05-20T04:46:33.242Z,94068.8
2019-05-20T04:47:35.131Z,94067.9
2019-05-20T04:48:37.547Z,94070.2
2019-05-20T04:49:39.982Z,94069.7
2019-05-20T04:50:42.768Z,94075
2019-05-20T04:51:45.200Z,94073.6
2019-05-20T04:52:47.400Z,94078.4
2019-05-20T04:53:50.076Z,94077.3
2019-05-20T04:54:52.696Z,94081.2
2019-05-20T04:55:55.079Z,94080.5
2019-05-20T04:56:57.494Z,94082.3
2019-05-20T04:57:59.842Z,94081.4
2019-05-20T04:59:02.001Z,94077.3
2019-05-20T05:00:04.425Z,94081.5
2019-05-20T05:01:07.007Z,94075.4
2019-05-20T05:02:09.200Z,94070.5
2019-05-20T05:03:11.626Z,94066.5
2019-05-20T05:04:14.052Z,94065.5
2019-05-20T05:05:16.937Z,94067.2
2019-05-20T05:06:19.963Z,94065.6
2019-05-20T05:07:22.584Z,94063.6
2019-05-20T05:08:25.219Z,94060.9
2019-05-20T05:09:27.624Z,94061.8
2019-05-20T05:10:29.783Z,94055
2019-05-20T05:11:32.032Z,94055.2
2019-05-20T05:12:34.667Z,94052.2
2019-05-20T05:13:37.074Z,94055.7
2019-05-20T05:14:39.514Z,94053.5
2019-05-20T05:15:41.935Z,94049.7
2019-05-20T05:16:44.360Z,94050.2
2019-05-20T05:17:46.513Z,94049.5
2019-05-20T05:18:48.943Z,94049.2
2019-05-20T05:19:51.377Z,94048.6
2019-05-20T05:20:53.811Z,94049.1
2019-05-20T05:21:56.433Z,94047.5
2019-05-20T05:22:59.013Z,94046.8
2019-05-20T05:24:01.517Z,94050.6
2019-05-20T05:25:03.769Z,94048.9
2019-05-20T05:26:05.950Z,94046.5
2019-05-20T05:27:08.115Z,94045.3
2019-05-20T05:28:10.577Z,94037.1
2019-05-20T05:29:13.016Z,94033.6
2019-05-20T05:30:15.455Z,94030.9
2019-05-20T05:31:17.886Z,94039.2
2019-05-20T05:32:20.045Z,94031.6
2019-05-20T05:33:22.510Z,94033.7
2019-05-20T05:34:24.931Z,94030.9
2019-05-20T05:35:28.218Z,94032.6
2019-05-20T05:36:30.633Z,94026.8
2019-05-20T05:37:32.800Z,94031.9
2019-05-20T05:38:34.958Z,94030.6
2019-05-20T05:39:37.112Z,94028.8
2019-05-20T05:40:39.544Z,94026.7
2019-05-20T05:41:41.977Z,94027.7
2019-05-20T05:42:44.396Z,94026.8
2019-05-20T05:43:46.841Z,94034.1
2019-05-20T05:44:48.743Z,94034.1
2019-05-20T05:45:50.892Z,94028.2
2019-05-20T05:46:53.065Z,94028.4
2019-05-20T05:47:55.492Z,94031.2
2019-05-20T05:48:57.647Z,94031.1
2019-05-20T05:50:00.577Z,94027.5
2019-05-20T05:51:03.625Z,94028.3
2019-05-20T05:52:06.050Z,94030.4
2019-05-20T05:53:07.915Z,94032
2019-05-20T05:54:10.379Z,94034.2
2019-05-20T05:55:12.841Z,94032.7
2019-05-20T05:56:14.994Z,94034.5
2019-05-20T05:57:17.426Z,94035.6
2019-05-20T05:58:19.852Z,94036.5
2019-05-20T05:59:22.285Z,94036.6
2019-05-20T06:00:24.472Z,94033.6
2019-05-20T06:01:26.912Z,94037.1
2019-05-20T06:02:29.354Z,94037.3
2019-05-20T06:03:31.784Z,94042.9
2019-05-20T06:04:34.214Z,94044.5
2019-05-20T06:05:36.716Z,94048.3
2019-05-20T06:06:39.185Z,94049.3
2019-05-20T06:07:41.696Z,94053
2019-05-20T06:08:43.849Z,94059.7
2019-05-20T06:09:46.320Z,94060.3
2019-05-20T06:10:48.763Z,94065.7
2019-05-20T06:11:51.467Z,94067.2
2019-05-20T06:12:53.966Z,94070.4
2019-05-20T06:13:56.195Z,94072.3
2019-05-20T06:14:58.687Z,94070.3
2019-05-20T06:16:00.874Z,94074.8
2019-05-20T06:17:03.342Z,94066.4
2019-05-20T06:18:05.798Z,94062.1
2019-05-20T06:19:07.937Z,94065.4
2019-05-20T06:20:10.446Z,94065.9
2019-05-20T06:21:12.610Z,94064.6
2019-05-20T06:22:15.791Z,94063.4
2019-05-20T06:23:18.240Z,94065.4
2019-05-20T06:24:20.656Z,94065.3
2019-05-20T06:25:22.544Z,94066.3
2019-05-20T06:26:24.977Z,94067.1
2019-05-20T06:27:27.207Z,94068.4
2019-05-20T06:28:29.634Z,94070
2019-05-20T06:29:32.062Z,94064.7
2019-05-20T06:30:34.483Z,94068.9
2019-05-20T06:31:36.688Z,94067.7
2019-05-20T06:32:39.113Z,94066.9
2019-05-20T06:33:41.278Z,94064.6
2019-05-20T06:34:44.640Z,94062.4
2019-05-20T06:35:46.531Z,94066.9
2019-05-20T06:36:48.955Z,94064.4
2019-05-20T06:37:51.399Z,94065.3
2019-05-20T06:38:53.636Z,94066.1
2019-05-20T06:39:55.529Z,94068
2019-05-20T06:40:57.914Z,94067.1
2019-05-20T06:42:00.174Z,94066.7
2019-05-20T06:43:02.375Z,94063.7
2019-05-20T06:44:04.546Z,94068.3
2019-05-20T06:45:06.394Z,94071
2019-05-20T06:46:08.829Z,94072.8
2019-05-20T06:47:11.273Z,94070
2019-05-20T06:48:13.470Z,94070
2019-05-20T06:49:15.349Z,94070.3
2019-05-20T06:50:17.510Z,94072.7
2019-05-20T06:51:19.649Z,94072
2019-05-20T06:53:26.792Z,94067.8
2019-05-20T06:54:29.228Z,94065.7
2019-05-20T06:55:31.351Z,94064.9
2019-05-20T06:56:33.826Z,94070.9
2019-05-20T06:57:36.299Z,94070.3
2019-05-20T06:58:38.725Z,94070.4
2019-05-20T06:59:40.579Z,94068.5
2019-05-20T07:00:42.730Z,94072.4
2019-05-20T07:01:45.198Z,94075.3
2019-05-20T07:02:47.634Z,94070.8
2019-05-20T07:03:50.075Z,94070.7
2019-05-20T07:04:52.517Z,94075.5
2019-05-20T07:05:54.961Z,94070.1
2019-05-20T07:06:57.429Z,94073.4
2019-05-20T07:09:04.565Z,94077.3
2019-05-20T07:10:06.996Z,94073.9
2019-05-20T07:11:09.431Z,94077.6
2019-05-20T07:12:11.866Z,94083.3
2019-05-20T07:14:19.285Z,94086.4
2019-05-20T07:15:21.438Z,94086.1
2019-05-20T07:16:23.876Z,94084.3
2019-05-20T07:17:26.047Z,94081.5
2019-05-20T07:18:28.851Z,94082
2019-05-20T07:19:31.275Z,94082.4
2019-05-20T07:20:33.710Z,94078.3
2019-05-20T07:21:36.150Z,94078.9
2019-05-20T07:23:43.565Z,94080
2019-05-20T07:24:45.733Z,94076.4
2019-05-20T07:25:48.179Z,94077.8
2019-05-20T07:26:50.650Z,94078.5
2019-05-20T07:27:53.453Z,94077
2019-05-20T07:28:55.650Z,94078.1
2019-05-20T07:29:57.840Z,94075.2
2019-05-20T07:31:00.572Z,94070.7
2019-05-20T07:32:02.518Z,94071.6
2019-05-20T07:33:04.987Z,94072.8
2019-05-20T07:34:07.410Z,94074.9
2019-05-20T07:35:09.293Z,94074.9
2019-05-20T07:36:11.493Z,94072.1
2019-05-20T07:37:13.374Z,94071.6
2019-05-20T07:38:15.806Z,94074.9
2019-05-20T07:39:18.230Z,94073.7
2019-05-20T07:40:20.147Z,94071.1
2019-05-20T07:41:22.591Z,94069.7
2019-05-20T07:42:24.834Z,94071.4
2019-05-20T07:43:27.276Z,94071.5
2019-05-20T07:44:29.721Z,94077.3
2019-05-20T07:45:32.204Z,94070.2
2019-05-20T07:46:34.158Z,94070.2
2019-05-20T07:47:36.342Z,94072.6
2019-05-20T07:48:38.969Z,94068.3
2019-05-20T07:49:41.516Z,94071
2019-05-20T07:50:43.960Z,94071.8
2019-05-20T07:51:46.725Z,94071.5
2019-05-20T07:52:49.155Z,94072.6
2019-05-20T07:53:51.780Z,94073.6
2019-05-20T07:54:54.073Z,94077.6
2019-05-20T07:55:55.986Z,94081.1
2019-05-20T07:56:58.415Z,94075.8
2019-05-20T07:58:00.630Z,94074.8
2019-05-20T07:59:03.107Z,94074.1
2019-05-20T08:00:05.534Z,94073.3
2019-05-20T08:01:07.975Z,94079
2019-05-20T08:02:10.164Z,94072.6
2019-05-20T08:03:12.314Z,94073.6
2019-05-20T08:04:15.080Z,94074.1
2019-05-20T08:05:17.591Z,94072.8
2019-05-20T08:06:20.163Z,94075
2019-05-20T08:08:27.696Z,94075.2
2019-05-20T08:09:30.131Z,94081.4
2019-05-20T08:10:32.289Z,94077.8
2019-05-20T08:11:34.193Z,94077.6
2019-05-20T08:12:36.369Z,94081.8
2019-05-20T08:13:38.530Z,94078.4
2019-05-20T08:14:40.966Z,94082.4
2019-05-20T08:15:43.156Z,94084.1
2019-05-20T08:16:45.382Z,94081
2019-05-20T08:17:47.947Z,94077.8
2019-05-20T08:18:50.461Z,94079.8
2019-05-20T08:19:52.683Z,94083.2
2019-05-20T08:20:54.834Z,94081
2019-05-20T08:21:57.449Z,94082.3
2019-05-20T08:22:59.929Z,94080.2
2019-05-20T08:24:03.050Z,94082.6
2019-05-20T08:25:05.220Z,94081
2019-05-20T08:26:07.645Z,94081.2
2019-05-20T08:27:10.074Z,94087
2019-05-20T08:28:12.553Z,94088.6
2019-05-20T08:29:14.993Z,94087.2
2019-05-20T08:30:17.431Z,94085.3
2019-05-20T08:31:19.864Z,94090.7
2019-05-20T08:32:22.404Z,94090.8
2019-05-20T08:33:24.643Z,94092.3
2019-05-20T08:34:26.959Z,94093.1
2019-05-20T08:35:29.400Z,94093
2019-05-20T08:36:31.856Z,94092.3
2019-05-20T08:38:39.391Z,94086.4
2019-05-20T08:39:41.850Z,94086.9
2019-05-20T08:41:49.963Z,94086.3
2019-05-20T08:42:52.118Z,94089
2019-05-20T08:43:54.004Z,94086.8
2019-05-20T08:44:56.433Z,94087.4
2019-05-20T08:45:58.045Z,94087.5
2019-05-20T08:47:00.599Z,94088.1
2019-05-20T08:48:03.078Z,94087
2019-05-20T08:51:16.433Z,94086.8
2019-05-20T08:52:18.591Z,94086.3
2019-05-20T08:53:21.067Z,94088.6
2019-05-20T08:54:23.496Z,94087.6
2019-05-20T08:55:25.935Z,94091.7
2019-05-20T08:56:28.351Z,94087.6
2019-05-20T08:57:30.546Z,94091.2
2019-05-20T08:58:32.973Z,94088.3
2019-05-20T08:59:35.136Z,94089.9
2019-05-20T09:00:37.018Z,94088.8
2019-05-20T09:01:39.442Z,94090
2019-05-20T09:02:41.614Z,94089.3
2019-05-20T09:03:44.034Z,94087.3
2019-05-20T09:04:46.467Z,94087.4
2019-05-20T09:05:48.916Z,94085
2019-05-20T09:06:51.303Z,94087
2019-05-20T09:08:58.454Z,94090.1
2019-05-20T09:10:00.862Z,94084.8
2019-05-20T09:11:03.427Z,94088.7
2019-05-20T09:12:05.923Z,94089.2
2019-05-20T09:13:08.353Z,94084.4
2019-05-20T09:14:10.782Z,94089.3
2019-05-20T09:15:12.951Z,94080.5
2019-05-20T09:16:15.093Z,94086.1
2019-05-20T09:17:17.702Z,94085.5
2019-05-20T09:18:20.151Z,94084.8
2019-05-20T09:19:22.588Z,94085.5
2019-05-20T09:20:25.671Z,94087.1
2019-05-20T09:21:28.123Z,94084.7
2019-05-20T09:22:30.625Z,94084.3
2019-05-20T09:23:32.775Z,94085
2019-05-20T09:24:35.679Z,94081.1
2019-05-20T09:25:38.324Z,94082.7
2019-05-20T09:26:40.503Z,94084.6
2019-05-20T09:27:42.936Z,94088.6
2019-05-20T09:28:45.385Z,94089
2019-05-20T09:29:47.281Z,94084.6
2019-05-20T09:30:49.470Z,94085.1
2019-05-20T09:31:52.052Z,94083.5
2019-05-20T09:32:54.213Z,94079.8
2019-05-20T09:33:56.107Z,94084.3
2019-05-20T09:34:58.534Z,94082.3
2019-05-20T09:36:01.756Z,94081.7
2019-05-20T09:37:04.384Z,94086.9
2019-05-20T09:39:11.538Z,94083.3
2019-05-20T09:40:13.976Z,94083.8
2019-05-20T09:41:16.405Z,94085.2
2019-05-20T09:42:18.555Z,94084.7
2019-05-20T09:43:20.987Z,94086.9
2019-05-20T09:44:23.513Z,94081.5
2019-05-20T09:45:25.674Z,94082.2
2019-05-20T09:46:28.106Z,94082.9
2019-05-20T09:47:30.590Z,94083.4
2019-05-20T09:48:33.052Z,94085
2019-05-20T09:49:35.302Z,94081.9
2019-05-20T09:50:37.834Z,94081.1
2019-05-20T09:51:40.337Z,94081.4
2019-05-20T09:52:42.773Z,94084.5
2019-05-20T09:53:44.935Z,94079.4
2019-05-20T09:54:47.090Z,94084.7
2019-05-20T09:55:49.273Z,94085.6
2019-05-20T09:56:51.701Z,94084.5
2019-05-20T09:57:54.136Z,94084.3
2019-05-20T09:58:56.549Z,94086.5
2019-05-20T09:59:58.975Z,94087.9
2019-05-20T10:01:00.828Z,94091.5
2019-05-20T10:02:02.777Z,94086.1
2019-05-20T10:03:07.853Z,94092.7
2019-05-20T10:04:10.054Z,94093.3
2019-05-20T10:05:12.509Z,94096.2
2019-05-20T10:06:14.457Z,94088.6
2019-05-20T10:07:16.902Z,94087.5
2019-05-20T10:09:24.035Z,94091.3
2019-05-20T10:10:26.458Z,94094
2019-05-20T10:11:28.878Z,94092
2019-05-20T10:13:36.036Z,94091.1
2019-05-20T10:14:38.466Z,94090
2019-05-20T10:15:40.645Z,94094.6
2019-05-20T10:16:43.097Z,94092.5
2019-05-20T10:17:45.527Z,94093.4
2019-05-20T10:18:47.947Z,94101.1
2019-05-20T10:19:50.393Z,94095.1
2019-05-20T10:20:52.833Z,94097.5
2019-05-20T10:21:54.978Z,94100.6
2019-05-20T10:22:57.135Z,94097.1
2019-05-20T10:23:59.337Z,94098.8
2019-05-20T10:25:01.500Z,94096.8
2019-05-20T10:26:03.781Z,94102.2
2019-05-20T10:27:05.952Z,94097.7
2019-05-20T10:28:08.374Z,94096.2
2019-05-20T10:29:10.889Z,94097.5
2019-05-20T10:30:13.338Z,94095.8
2019-05-20T10:31:15.816Z,94098.1
2019-05-20T10:32:18.237Z,94099.2
2019-05-20T10:33:20.402Z,94095
2019-05-20T10:34:22.587Z,94098.8
2019-05-20T10:35:25.026Z,94096.2
2019-05-20T10:36:26.927Z,94103.8
2019-05-20T10:37:29.079Z,94099.8
2019-05-20T10:38:31.275Z,94101.9
2019-05-20T10:39:33.761Z,94100.9
2019-05-20T10:40:35.644Z,94107.1
2019-05-20T10:41:37.816Z,94105
2019-05-20T10:42:40.256Z,94099.9
2019-05-20T10:43:42.692Z,94104.5
2019-05-20T10:44:44.860Z,94104
2019-05-20T10:45:47.026Z,94102.7
2019-05-20T10:46:49.192Z,94100.1
2019-05-20T10:47:52.028Z,94098.9
2019-05-20T10:48:54.512Z,94105.8
2019-05-20T10:49:56.692Z,94104.6
2019-05-20T10:50:58.866Z,94105.4
2019-05-20T10:52:01.037Z,94106.2
2019-05-20T10:53:03.559Z,94103.6
2019-05-20T10:54:05.992Z,94102.3
2019-05-20T10:55:08.643Z,94099.8
2019-05-20T10:56:11.786Z,94098.3
2019-05-20T10:57:14.413Z,94101.6
2019-05-20T10:58:16.567Z,94099.2
2019-05-20T10:59:18.786Z,94099.8
2019-05-20T11:00:21.217Z,94094.7
2019-05-20T11:01:23.425Z,94096.7
2019-05-20T11:02:30.480Z,94098.8
2019-05-20T11:03:32.287Z,94096.7
2019-05-20T11:05:39.695Z,94097.5
2019-05-20T11:06:42.148Z,94095.9
2019-05-20T11:07:44.509Z,94098.5
2019-05-20T11:08:46.977Z,94100.7
2019-05-20T11:09:49.427Z,94100.4
2019-05-20T11:10:51.950Z,94100.1
2019-05-20T11:11:53.873Z,94102.4
2019-05-20T11:12:56.027Z,94102.9
2019-05-20T11:13:58.182Z,94102.2
2019-05-20T11:15:00.619Z,94103.5
2019-05-20T11:16:03.103Z,94100.3
2019-05-20T11:17:05.535Z,94099.6
2019-05-20T11:18:07.957Z,94101.1
2019-05-20T11:19:10.398Z,94099.5
2019-05-20T11:20:12.828Z,94100.8
2019-05-20T11:21:15.522Z,94098.5
2019-05-20T11:22:17.946Z,94105.5
2019-05-20T11:23:20.397Z,94101.3
2019-05-20T11:24:22.531Z,94101.2
2019-05-20T11:25:24.950Z,94102.3
2019-05-20T11:26:27.506Z,94103.5
2019-05-20T11:27:29.664Z,94106.7
2019-05-20T11:28:32.103Z,94103.1
2019-05-20T11:29:34.260Z,94104.5
2019-05-20T11:30:36.679Z,94104.2
2019-05-20T11:31:38.294Z,94102.5
2019-05-20T11:32:40.724Z,94104
2019-05-20T11:33:43.204Z,94109.1
2019-05-20T11:34:45.634Z,94104.5
2019-05-20T11:35:48.242Z,94102.9
2019-05-20T11:36:50.681Z,94107.5
2019-05-20T11:37:53.117Z,94103.2
2019-05-20T11:38:55.256Z,94104
2019-05-20T11:39:58.075Z,94099
2019-05-20T11:42:35.945Z,94107.2
2019-05-20T11:43:38.374Z,94106.1
2019-05-20T11:44:40.526Z,94105.5
2019-05-20T11:45:43.485Z,94103.9
2019-05-20T11:46:45.932Z,94109.1
2019-05-20T11:47:48.990Z,94111.5
2019-05-20T11:48:51.436Z,94111.7
2019-05-20T11:49:54.474Z,94116.9
2019-05-20T11:50:56.908Z,94119.8
2019-05-20T11:51:59.044Z,94123.9
2019-05-20T11:53:01.548Z,94125.4
2019-05-20T11:54:04.001Z,94116.8
2019-05-20T11:55:06.456Z,94112.5
2019-05-20T11:57:14.943Z,94122.9
2019-05-20T11:58:18.324Z,94119.2
2019-05-20T11:59:22.423Z,94115.9
2019-05-20T12:00:24.875Z,94122.3
2019-05-20T12:01:27.032Z,94125.5
2019-05-20T12:02:29.535Z,94123.6
2019-05-20T12:03:31.990Z,94122.8
2019-05-20T12:04:33.901Z,94125.1
2019-05-20T12:05:36.869Z,94118.9
2019-05-20T12:06:39.317Z,94122.4
2019-05-20T12:07:41.757Z,94119.3
2019-05-20T12:08:44.240Z,94124.6
2019-05-20T12:10:51.647Z,94122.8
2019-05-20T12:11:54.088Z,94124.8
2019-05-20T12:12:56.240Z,94126
2019-05-20T12:13:58.417Z,94113.6
2019-05-20T12:15:01.141Z,94121.1
2019-05-20T12:16:05.194Z,94121.1
2019-05-20T12:17:07.625Z,94122
2019-05-20T12:18:10.263Z,94116.4
2019-05-20T12:19:13.287Z,94119.8
2019-05-20T12:20:15.752Z,94117.9
2019-05-20T12:21:17.912Z,94123.5
2019-05-20T12:22:20.945Z,94120.4
2019-05-20T12:23:23.125Z,94121.3
2019-05-20T12:24:25.666Z,94119.5
2019-05-20T12:25:28.085Z,94124.4
2019-05-20T12:26:30.235Z,94118.2
2019-05-20T12:27:32.686Z,94121.8
2019-05-20T12:28:34.864Z,94118.2
2019-05-20T12:29:36.777Z,94121.2
2019-05-20T12:30:39.240Z,94120.9
2019-05-20T12:31:41.147Z,94119.1
2019-05-20T12:32:43.594Z,94119.3
2019-05-20T12:33:46.031Z,94116.5
2019-05-20T12:34:48.729Z,94119.5
2019-05-20T12:35:50.991Z,94120.1
2019-05-20T12:36:53.457Z,94118.6
2019-05-20T12:37:55.887Z,94119
2019-05-20T12:38:57.750Z,94122.6
2019-05-20T12:41:05.163Z,94116.3
2019-05-20T12:42:07.352Z,94123.2
2019-05-20T12:43:09.765Z,94118.2
2019-05-20T12:45:17.172Z,94121.3
2019-05-20T12:46:19.615Z,94122.9
2019-05-20T12:47:22.045Z,94125.5
2019-05-20T12:48:25.115Z,94127.3
2019-05-20T12:49:28.218Z,94127.1
2019-05-20T12:50:30.756Z,94128.9
2019-05-20T12:51:33.193Z,94132.7
2019-05-20T12:52:35.566Z,94132.3
2019-05-20T12:53:37.987Z,94133.3
2019-05-20T12:54:40.423Z,94131
2019-05-20T12:55:42.855Z,94134.4
2019-05-20T12:56:44.757Z,94131.9
2019-05-20T12:57:46.914Z,94129.1
2019-05-20T12:58:49.370Z,94135.8
2019-05-20T12:59:51.537Z,94133.8
2019-05-20T13:00:53.964Z,94125
2019-05-20T13:01:56.385Z,94131.6
2019-05-20T13:02:58.802Z,94132.2
2019-05-20T13:04:01.234Z,94133.6
2019-05-20T13:05:03.786Z,94134.3
2019-05-20T13:06:05.942Z,94137.3
2019-05-20T13:07:08.109Z,94138